Time;durP1;ratioP1;P1;durP2;ratioP2;P2;SDS_P1;SDS_P2;PMS_P1;PMS_P2;Temp;Humidity;BMP_temperature;BMP_pressure;BME280_temperature;BME280_humidity;BME280_pressure;Samples;Min_cycle;Max_cycle;Signal;HPM_P1;HPM_P2
2023/08/05 00:00:49;;;;;;;6.53;4.57;;;;;;;27.52;48.21;99063.44;5092620;28;20018;-43
2023/08/05 00:03:14;;;;;;;5.85;4.18;;;;;;;27.55;48.32;99070.16;5092750;28;20012;-46
2023/08/05 00:05:39;;;;;;;5.68;4.35;;;;;;;27.59;48.23;99060.97;5092550;28;20478;-46
2023/08/05 00:08:05;;;;;;;7.32;4.50;;;;;;;27.56;48.34;99058.13;5092315;28;20027;-48
2023/08/05 00:10:31;;;;;;;4.80;4.30;;;;;;;27.39;48.95;99064.50;5092485;28;20520;-47
2023/08/05 00:12:56;;;;;;;6.63;4.90;;;;;;;27.10;49.82;99058.69;5092178;28;20020;-47
2023/08/05 00:15:22;;;;;;;4.90;4.40;;;;;;;26.98;50.31;99061.34;5092229;28;20015;-47
2023/08/05 00:17:48;;;;;;;4.80;4.30;;;;;;;26.85;50.71;99055.00;5091870;28;20023;-46
2023/08/05 00:20:13;;;;;;;5.35;4.43;;;;;;;27.04;50.51;99051.03;5091806;28;20035;-43
2023/08/05 00:22:39;;;;;;;5.85;4.47;;;;;;;26.84;51.10;99050.63;5091909;28;20024;-44
2023/08/05 00:25:05;;;;;;;6.28;4.65;;;;;;;26.87;51.28;99054.66;5091733;28;20023;-46
2023/08/05 00:27:30;;;;;;;6.05;4.47;;;;;;;26.88;51.30;99050.78;5091905;28;20028;-43
2023/08/05 00:29:56;;;;;;;5.63;4.53;;;;;;;27.00;51.11;99052.84;5091708;28;20034;-44
2023/08/05 00:32:22;;;;;;;6.30;4.45;;;;;;;26.82;51.66;99052.91;5091660;28;20023;-45
2023/08/05 00:34:47;;;;;;;4.50;4.10;;;;;;;26.86;51.73;99053.84;5091487;28;20020;-44
2023/08/05 00:37:13;;;;;;;5.50;4.50;;;;;;;26.85;51.99;99052.25;5091507;28;20044;-44
2023/08/05 00:39:38;;;;;;;5.20;4.70;;;;;;;26.48;53.08;99059.28;5091844;28;20026;-45
2023/08/05 00:42:04;;;;;;;5.22;4.35;;;;;;;26.49;53.38;99044.53;5091242;28;20365;-45
2023/08/05 00:44:29;;;;;;;6.57;4.45;;;;;;;26.43;53.44;99038.44;5090904;28;20024;-44
2023/08/05 00:46:56;;;;;;;6.32;4.85;;;;;;;26.61;53.31;99030.22;5091448;28;20482;-43
2023/08/05 00:49:22;;;;;;;5.28;4.50;;;;;;;26.44;53.87;99037.28;5091278;28;20348;-45
2023/08/05 00:51:48;;;;;;;5.80;4.78;;;;;;;26.54;53.79;99038.91;5091236;28;20024;-48
2023/08/05 00:54:13;;;;;;;5.25;4.68;;;;;;;26.30;54.67;99036.72;5090486;28;20099;-43
2023/08/05 00:56:39;;;;;;;7.00;4.90;;;;;;;26.29;54.75;99043.28;5091390;28;20111;-43
2023/08/05 00:59:05;;;;;;;5.63;5.10;;;;;;;26.16;55.22;99042.38;5091392;28;20028;-44
2023/08/05 01:01:30;;;;;;;6.57;4.78;;;;;;;26.18;55.24;99031.13;5091344;28;20024;-43
2023/08/05 01:03:56;;;;;;;6.38;4.80;;;;;;;26.28;55.14;99036.25;5091011;28;20093;-46
2023/08/05 01:06:23;;;;;;;5.63;4.55;;;;;;;26.36;55.15;99032.69;5091232;28;20054;-44
2023/08/05 01:08:49;;;;;;;6.97;4.75;;;;;;;26.26;55.68;99025.66;5091062;28;20053;-45
2023/08/05 01:11:16;;;;;;;5.28;4.75;;;;;;;26.00;56.00;99003.91;5090676;28;20023;-45
2023/08/05 01:13:42;;;;;;;5.38;4.35;;;;;;;26.26;55.86;99019.41;5090880;28;20016;-45
2023/08/05 01:16:08;;;;;;;5.82;4.55;;;;;;;26.34;55.96;99029.47;5091186;28;20111;-48
2023/08/05 01:18:36;;;;;;;5.65;4.60;;;;;;;26.34;56.02;99032.22;5090906;28;20024;-43
2023/08/05 01:21:03;;;;;;;5.15;4.65;;;;;;;26.02;57.25;99028.91;5090663;28;20023;-43
2023/08/05 01:23:34;;;;;;;6.57;4.90;;;;;;;26.14;57.08;99029.06;5091007;28;20028;-46
2023/08/05 01:26:01;;;;;;;6.72;4.80;;;;;;;26.15;57.23;99024.41;5090933;28;20469;-46
2023/08/05 01:28:26;;;;;;;5.78;5.00;;;;;;;26.12;57.54;99033.22;5090632;28;20111;-47
2023/08/05 01:30:54;;;;;;;6.03;4.80;;;;;;;26.00;57.72;99014.81;5090760;28;20063;-47
2023/08/05 01:33:21;;;;;;;5.45;4.95;;;;;;;26.07;57.93;99026.03;5090767;28;20024;-46
2023/08/05 01:35:48;;;;;;;5.45;4.95;;;;;;;25.86;58.86;99019.63;5090621;28;20115;-46
2023/08/05 01:38:14;;;;;;;5.88;4.80;;;;;;;25.84;58.71;99019.16;5091044;28;20069;-45
2023/08/05 01:40:39;;;;;;;6.75;4.85;;;;;;;25.89;58.92;99017.06;5090871;28;20016;-42
2023/08/05 01:43:05;;;;;;;6.57;5.25;;;;;;;25.96;58.51;99016.59;5090499;28;20093;-46
2023/08/05 01:45:30;;;;;;;5.18;4.68;;;;;;;25.76;59.08;99020.75;5090542;28;20067;-44
2023/08/05 01:47:56;;;;;;;5.88;5.20;;;;;;;25.73;59.76;99015.94;5090512;28;20023;-46
2023/08/05 01:50:23;;;;;;;6.40;5.25;;;;;;;25.78;60.06;99009.50;5090483;28;20020;-45
2023/08/05 01:52:49;;;;;;;6.93;5.20;;;;;;;25.71;60.65;99015.47;5091098;28;20182;-48
2023/08/05 01:55:14;;;;;;;6.50;5.20;;;;;;;25.83;60.28;99021.06;5089893;28;20480;-45
2023/08/05 01:57:40;;;;;;;8.27;5.50;;;;;;;25.67;61.05;99023.47;5090512;28;20423;-46
2023/08/05 02:00:06;;;;;;;6.18;5.30;;;;;;;25.91;60.33;99031.19;5090510;28;20095;-45
2023/08/05 02:02:31;;;;;;;8.20;5.38;;;;;;;25.82;60.82;99024.91;5090635;28;20020;-45
2023/08/05 02:04:56;;;;;;;7.25;5.47;;;;;;;25.52;62.10;99032.13;5090470;28;20416;-44
2023/08/05 02:07:22;;;;;;;7.82;5.57;;;;;;;25.72;61.93;99033.41;5090678;28;20020;-44
2023/08/05 02:09:47;;;;;;;7.03;5.30;;;;;;;25.72;62.00;99033.41;5090835;28;20148;-44
2023/08/05 02:12:13;;;;;;;7.18;5.25;;;;;;;25.72;62.25;99034.22;5090111;28;20096;-47
2023/08/05 02:14:38;;;;;;;7.55;5.60;;;;;;;25.80;62.44;99031.78;5090400;28;20489;-44
2023/08/05 02:17:04;;;;;;;6.45;5.30;;;;;;;25.61;63.36;99030.22;5090440;28;20024;-47
2023/08/05 02:19:29;;;;;;;7.03;5.28;;;;;;;25.56;63.53;99024.91;5090375;28;20107;-47
2023/08/05 02:21:55;;;;;;;6.63;5.28;;;;;;;25.49;64.08;99027.31;5090250;28;20382;-45
2023/08/05 02:24:20;;;;;;;8.20;5.63;;;;;;;25.26;65.03;99018.50;5090464;28;20090;-48
2023/08/05 02:26:46;;;;;;;6.13;5.53;;;;;;;25.33;64.92;99010.66;5090068;28;20045;-45
2023/08/05 02:29:11;;;;;;;7.10;5.60;;;;;;;25.39;65.34;99036.59;5090242;28;20081;-45
2023/08/05 02:31:37;;;;;;;8.35;5.93;;;;;;;25.54;65.12;99033.41;5090052;28;20012;-45
2023/08/05 02:34:02;;;;;;;6.47;5.85;;;;;;;25.42;65.76;99032.44;5090005;28;20392;-44
2023/08/05 02:36:27;;;;;;;8.07;5.72;;;;;;;25.41;65.93;99031.63;5089939;28;20373;-47
2023/08/05 02:38:53;;;;;;;9.70;6.35;;;;;;;25.45;66.30;99032.59;5089869;28;20482;-45
2023/08/05 02:41:18;;;;;;;8.23;6.10;;;;;;;25.18;67.81;99037.19;5089925;28;20024;-47
2023/08/05 02:43:44;;;;;;;9.82;6.60;;;;;;;25.15;68.41;99048.72;5089581;28;20030;-46
2023/08/05 02:46:09;;;;;;;7.45;6.10;;;;;;;25.13;68.54;99047.41;5090083;28;20062;-45
2023/08/05 02:48:34;;;;;;;7.50;6.32;;;;;;;25.00;69.11;99035.56;5090116;28;20024;-44
2023/08/05 02:51:00;;;;;;;8.40;6.00;;;;;;;25.26;68.50;99038.34;5089864;28;20078;-43
2023/08/05 02:53:26;;;;;;;7.50;6.05;;;;;;;25.16;68.71;99038.63;5089906;28;20404;-45
2023/08/05 02:55:51;;;;;;;7.63;6.60;;;;;;;25.31;68.92;99042.84;5089744;28;20069;-46
2023/08/05 02:58:17;;;;;;;7.38;6.43;;;;;;;25.14;69.91;99038.16;5089758;28;20024;-44
2023/08/05 03:00:43;;;;;;;7.32;6.43;;;;;;;25.11;69.86;99038.78;5089870;28;20024;-43
2023/08/05 03:03:10;;;;;;;7.13;6.18;;;;;;;25.11;70.00;99036.03;5089900;28;20023;-47
2023/08/05 03:05:35;;;;;;;7.22;6.50;;;;;;;25.06;70.57;99037.00;5090478;28;20020;-45
2023/08/05 03:08:01;;;;;;;7.50;6.75;;;;;;;25.08;70.47;99031.25;5093692;28;20054;-43
2023/08/05 03:10:26;;;;;;;10.43;7.85;;;;;;;25.22;69.89;99042.78;5093340;28;20123;-42
2023/08/05 03:12:51;;;;;;;8.30;7.47;;;;;;;25.04;71.00;99043.91;5093179;28;20094;-43
2023/08/05 03:15:17;;;;;;;9.40;6.97;;;;;;;25.15;70.29;99037.00;5093376;28;20077;-44
2023/08/05 03:17:42;;;;;;;9.07;7.40;;;;;;;25.09;71.17;99033.66;5093256;28;20134;-46
2023/08/05 03:20:23;;;;;;;10.13;7.20;;;;;;;24.94;72.05;99042.25;5093371;28;20024;-44
2023/08/05 03:22:48;;;;;;;9.35;7.10;;;;;;;24.92;72.30;99041.75;5093018;28;20016;-46
2023/08/05 03:25:13;;;;;;;9.13;7.90;;;;;;;25.10;71.91;99043.41;5092746;28;20065;-47
2023/08/05 03:27:39;;;;;;;10.27;7.18;;;;;;;24.94;72.59;99042.25;5093180;28;20016;-47
2023/08/05 03:30:05;;;;;;;9.40;7.28;;;;;;;25.18;71.73;99044.56;5093019;28;20046;-47
2023/08/05 03:32:31;;;;;;;8.80;7.22;;;;;;;25.25;71.66;99036.75;5093112;28;20020;-43
2023/08/05 03:34:56;;;;;;;9.65;6.97;;;;;;;25.23;71.92;99044.44;5092931;28;20020;-47
2023/08/05 03:37:21;;;;;;;9.77;7.28;;;;;;;25.07;72.89;99045.97;5093017;28;20036;-45
2023/08/05 03:39:48;;;;;;;10.05;7.93;;;;;;;25.00;74.10;99045.63;5093006;28;20426;-46
2023/08/05 03:42:13;;;;;;;15.38;9.32;;;;;;;24.75;77.15;99046.06;5093167;28;20020;-47
2023/08/05 03:44:42;;;;;;;14.20;10.43;;;;;;;24.84;77.61;99037.91;5092660;28;20020;-45
2023/08/05 03:47:07;;;;;;;15.32;10.57;;;;;;;24.90;77.45;99046.72;5092911;28;20167;-46
2023/08/05 03:49:33;;;;;;;15.30;10.48;;;;;;;24.57;79.37;99042.44;5092511;28;20103;-42
2023/08/05 03:51:59;;;;;;;13.75;10.27;;;;;;;24.67;78.59;99040.56;5092720;28;20099;-47
2023/08/05 03:54:24;;;;;;;15.95;10.90;;;;;;;24.75;78.15;99034.34;5092505;28;20426;-44
2023/08/05 03:56:51;;;;;;;17.42;11.18;;;;;;;24.56;79.43;99037.31;5092415;28;20016;-46
2023/08/05 03:59:16;;;;;;;17.80;12.35;;;;;;;24.32;81.17;99029.50;5092705;28;20024;-46
2023/08/05 04:01:43;;;;;;;17.83;12.88;;;;;;;24.57;80.47;99028.84;5092548;28;20020;-47
2023/08/05 04:04:08;;;;;;;19.38;12.82;;;;;;;24.54;80.65;99023.22;5092548;28;20099;-45
2023/08/05 04:06:34;;;;;;;17.95;12.35;;;;;;;24.30;82.08;99023.59;5092410;28;20127;-45
2023/08/05 04:08:59;;;;;;;20.05;12.80;;;;;;;24.26;82.94;99019.88;5092439;28;20467;-47
2023/08/05 04:11:26;;;;;;;20.67;13.32;;;;;;;24.06;84.65;99030.16;5092130;28;20016;-45
2023/08/05 04:13:52;;;;;;;24.15;13.85;;;;;;;24.06;84.23;99024.72;5092205;28;20100;-45
2023/08/05 04:16:19;;;;;;;21.67;13.82;;;;;;;24.13;84.99;99033.22;5092408;28;20093;-45
2023/08/05 04:18:48;;;;;;;24.02;15.18;;;;;;;24.24;84.89;99035.69;5091002;28;20023;-43
2023/08/05 04:21:14;;;;;;;22.73;14.00;;;;;;;24.50;83.03;99035.81;5092198;28;20028;-46
2023/08/05 04:23:41;;;;;;;26.25;15.00;;;;;;;24.51;83.03;99043.69;5091667;28;20111;-47
2023/08/05 04:26:07;;;;;;;23.52;14.40;;;;;;;24.56;82.98;99043.56;5091986;28;20093;-48
2023/08/05 04:28:32;;;;;;;21.88;14.30;;;;;;;24.41;83.80;99041.22;5091811;28;20020;-46
2023/08/05 04:30:58;;;;;;;21.85;15.20;;;;;;;24.32;83.84;99027.59;5091656;28;20442;-45
2023/08/05 04:33:27;;;;;;;22.98;14.50;;;;;;;24.69;82.19;99046.50;5091855;28;20466;-46
2023/08/05 04:35:53;;;;;;;22.45;14.43;;;;;;;24.87;81.15;99048.16;5091893;28;20048;-47
2023/08/05 04:38:18;;;;;;;23.00;15.23;;;;;;;24.80;80.85;99057.91;5091799;28;20034;-46
2023/08/05 04:40:44;;;;;;;22.42;15.15;;;;;;;24.75;81.20;99056.94;5091669;28;20164;-46
2023/08/05 04:43:11;;;;;;;23.88;15.70;;;;;;;24.80;80.96;99044.31;5091339;28;20464;-46
2023/08/05 04:45:37;;;;;;;22.73;15.52;;;;;;;24.89;80.51;99042.41;5091448;28;20074;-46
2023/08/05 04:48:04;;;;;;;25.58;15.73;;;;;;;25.02;79.94;99043.38;5091046;28;20024;-46
2023/08/05 04:50:29;;;;;;;22.00;14.70;;;;;;;25.07;79.35;99037.81;5091391;28;20027;-45
2023/08/05 04:52:55;;;;;;;20.23;14.52;;;;;;;24.87;80.64;99041.94;5090575;28;20392;-44
2023/08/05 04:55:20;;;;;;;21.73;15.00;;;;;;;25.11;79.54;99050.47;5091103;28;20024;-47
2023/08/05 04:57:50;;;;;;;21.27;14.18;;;;;;;25.12;79.31;99060.22;5091459;28;20039;-48
2023/08/05 05:00:16;;;;;;;24.88;14.95;;;;;;;25.25;78.45;99038.69;5090963;28;20020;-46
2023/08/05 05:02:41;;;;;;;23.20;15.23;;;;;;;25.35;77.21;99046.53;5090846;28;20404;-46
2023/08/05 05:05:07;;;;;;;20.75;14.23;;;;;;;25.23;78.05;99043.66;5091141;28;20118;-44
2023/08/05 05:07:32;;;;;;;21.98;14.75;;;;;;;25.30;76.63;99054.84;5090969;28;20028;-45
2023/08/05 05:09:58;;;;;;;21.73;13.75;;;;;;;25.25;77.21;99046.84;5091397;28;20024;-44
2023/08/05 05:12:24;;;;;;;21.80;14.48;;;;;;;25.47;76.64;99048.63;5091297;28;20498;-42
2023/08/05 05:14:49;;;;;;;20.02;14.00;;;;;;;25.60;75.51;99055.84;5091536;28;20036;-44
2023/08/05 05:17:15;;;;;;;20.27;14.57;;;;;;;25.85;73.73;99056.94;5091149;28;20045;-45
2023/08/05 05:19:42;;;;;;;21.30;14.25;;;;;;;25.65;75.10;99052.97;5090859;28;20019;-45
2023/08/05 05:22:08;;;;;;;19.73;13.90;;;;;;;25.67;75.05;99053.44;5091103;28;20028;-45
2023/08/05 05:24:34;;;;;;;20.00;14.27;;;;;;;26.14;73.11;99053.59;5091148;28;20034;-46
2023/08/05 05:26:59;;;;;;;20.25;14.30;;;;;;;26.12;72.98;99065.94;5089939;28;20020;-43
2023/08/05 05:29:24;;;;;;;20.45;14.90;;;;;;;26.29;72.03;99054.19;5090258;28;20024;-42
2023/08/05 05:31:50;;;;;;;20.45;14.98;;;;;;;26.52;70.85;99039.22;5090155;28;20020;-44
2023/08/05 05:34:15;;;;;;;18.92;14.27;;;;;;;26.56;69.71;99022.19;5090377;28;20103;-44
2023/08/05 05:36:41;;;;;;;20.50;14.65;;;;;;;26.41;70.63;99042.63;5089997;28;20043;-47
2023/08/05 05:39:06;;;;;;;21.75;15.07;;;;;;;26.29;71.79;99037.81;5090468;28;20028;-44
2023/08/05 05:41:32;;;;;;;21.23;14.77;;;;;;;27.06;68.16;99048.78;5072004;28;20507;-44
2023/08/05 05:43:58;;;;;;;21.85;14.65;;;;;;;27.29;67.49;99041.91;5090267;28;20024;-43
2023/08/05 05:46:25;;;;;;;21.58;14.60;;;;;;;27.72;66.10;99033.69;5090147;28;20093;-43
2023/08/05 05:48:50;;;;;;;19.42;14.27;;;;;;;27.94;64.86;99032.56;5090103;28;20024;-44
2023/08/05 05:51:16;;;;;;;18.40;13.68;;;;;;;28.13;63.35;99029.34;5090080;28;20027;-43
2023/08/05 05:53:42;;;;;;;22.83;13.73;;;;;;;28.15;63.23;99021.59;5090025;28;20472;-42
2023/08/05 05:56:08;;;;;;;19.88;14.20;;;;;;;28.13;63.50;99032.84;5090152;28;20466;-43
2023/08/05 05:58:35;;;;;;;18.58;14.40;;;;;;;28.15;63.52;99025.09;5089944;28;20043;-44
2023/08/05 06:01:01;;;;;;;18.25;13.98;;;;;;;27.99;63.77;99033.16;5090024;28;20051;-43
2023/08/05 06:03:27;;;;;;;19.38;13.30;;;;;;;28.26;64.01;99022.75;5089673;28;20062;-43
2023/08/05 06:05:52;;;;;;;18.13;13.88;;;;;;;28.18;63.56;99026.34;5089883;28;20138;-44
2023/08/05 06:08:18;;;;;;;17.00;13.30;;;;;;;28.37;62.55;99012.97;5089885;28;20173;-44
2023/08/05 06:10:44;;;;;;;15.00;12.43;;;;;;;28.29;62.81;99008.38;5089952;28;20457;-43
2023/08/05 06:13:09;;;;;;;16.77;12.65;;;;;;;28.56;61.84;99006.16;5089828;28;20024;-46
2023/08/05 06:15:38;;;;;;;18.35;13.95;;;;;;;28.83;60.98;99010.16;5089117;28;20359;-44
2023/08/05 06:18:04;;;;;;;17.17;13.77;;;;;;;29.33;60.03;99006.22;5088577;28;20042;-45
2023/08/05 06:20:29;;;;;;;15.65;13.32;;;;;;;29.34;59.52;98996.88;5088270;28;20408;-44
2023/08/05 06:22:55;;;;;;;16.08;13.05;;;;;;;29.37;59.60;98998.09;5088535;28;20459;-45
2023/08/05 06:25:20;;;;;;;15.05;12.65;;;;;;;29.66;58.45;98996.19;5088037;28;20017;-43
2023/08/05 06:27:46;;;;;;;16.02;12.82;;;;;;;29.59;58.19;98996.78;5087466;28;20467;-44
2023/08/05 06:30:12;;;;;;;14.25;11.77;;;;;;;29.46;58.50;99008.94;5087743;28;20031;-45
2023/08/05 06:32:38;;;;;;;13.52;10.70;;;;;;;29.29;58.31;99012.75;5089401;28;20024;-45
2023/08/05 06:35:04;;;;;;;12.50;11.20;;;;;;;29.61;58.04;99003.50;5089810;28;20155;-43
2023/08/05 06:37:29;;;;;;;10.57;9.40;;;;;;;29.60;57.42;99001.91;5089719;28;20193;-44
2023/08/05 06:39:55;;;;;;;11.55;10.00;;;;;;;29.22;58.42;99005.09;5089828;28;20107;-44
2023/08/05 06:42:23;;;;;;;10.20;9.07;;;;;;;30.01;56.42;98999.91;5093316;28;20028;-44
2023/08/05 06:44:49;;;;;;;10.60;9.48;;;;;;;30.12;56.10;98994.72;5093294;28;20092;-44
2023/08/05 06:47:14;;;;;;;11.35;9.10;;;;;;;30.35;54.60;99002.38;5093719;28;20115;-44
2023/08/05 06:49:40;;;;;;;12.30;9.45;;;;;;;30.74;53.68;98999.78;5093697;28;20020;-43
2023/08/05 06:52:06;;;;;;;12.63;8.82;;;;;;;30.86;52.31;98990.63;5093442;28;20021;-43
2023/08/05 06:54:32;;;;;;;9.75;8.82;;;;;;;29.57;56.64;98988.91;5093147;28;20012;-43
2023/08/05 06:56:57;;;;;;;10.00;8.63;;;;;;;29.89;55.65;98989.03;5074984;28;20436;-45
2023/08/05 06:59:23;;;;;;;10.45;8.45;;;;;;;30.19;55.12;98974.88;5093814;28;20047;-44
2023/08/05 07:01:48;;;;;;;10.27;9.23;;;;;;;30.48;53.78;98976.44;5094061;28;20047;-46
2023/08/05 07:04:14;;;;;;;9.73;8.73;;;;;;;30.69;52.85;98978.06;5093579;28;20020;-44
2023/08/05 07:06:40;;;;;;;9.68;7.85;;;;;;;31.64;50.42;98986.03;5093794;28;20109;-44
2023/08/05 07:09:06;;;;;;;9.80;8.50;;;;;;;31.52;50.79;98969.72;5093564;28;20035;-43
2023/08/05 07:11:31;;;;;;;10.13;8.07;;;;;;;31.71;49.83;98974.41;5092171;28;20020;-43
2023/08/05 07:13:57;;;;;;;8.88;7.55;;;;;;;31.69;49.44;98962.97;5092894;28;20016;-43
2023/08/05 07:16:22;;;;;;;9.68;7.20;;;;;;;31.48;49.97;98958.66;5093340;28;20403;-46
2023/08/05 07:18:48;;;;;;;8.43;7.22;;;;;;;31.44;49.29;98957.75;5093089;28;20024;-44
2023/08/05 07:21:15;;;;;;;9.90;7.57;;;;;;;31.72;48.76;98959.47;5093258;28;20016;-43
2023/08/05 07:23:40;;;;;;;8.10;7.20;;;;;;;31.81;48.62;98957.28;5092864;28;20020;-47
2023/08/05 07:26:06;;;;;;;8.50;7.45;;;;;;;32.20;47.04;98951.72;5092902;28;20058;-44
2023/08/05 07:28:31;;;;;;;10.27;8.05;;;;;;;31.63;48.02;98965.22;5092742;28;20526;-46
2023/08/05 07:31:10;;;;;;;9.23;8.32;;;;;;;31.93;47.81;98965.38;5093083;28;20028;-43
2023/08/05 07:33:35;;;;;;;10.45;9.45;;;;;;;32.52;46.62;98962.47;5092809;28;20115;-50
2023/08/05 07:36:15;;;;;;;10.90;8.80;;;;;;;32.53;46.37;98955.78;5092805;28;20448;-46
2023/08/05 07:38:42;;;;;;;11.63;10.43;;;;;;;32.64;45.51;98965.03;5092513;28;20039;-42
2023/08/05 07:41:08;;;;;;;10.13;9.05;;;;;;;31.88;47.23;98951.13;5092261;28;20520;-44
2023/08/05 07:43:35;;;;;;;10.38;9.20;;;;;;;32.44;46.03;98955.22;5092541;28;20032;-48
2023/08/05 07:46:02;;;;;;;10.30;9.23;;;;;;;32.84;44.45;98962.97;5092423;28;20035;-44
2023/08/05 07:48:32;;;;;;;10.10;8.88;;;;;;;32.89;44.56;98956.31;5092088;28;20311;-44
2023/08/05 07:50:59;;;;;;;9.02;7.85;;;;;;;32.92;44.61;98948.13;5092187;28;20131;-45
2023/08/05 07:53:24;;;;;;;9.02;8.10;;;;;;;33.40;42.76;98942.03;5090702;28;20111;-44
2023/08/05 07:55:50;;;;;;;9.68;8.15;;;;;;;33.64;42.66;98934.44;5092261;28;20096;-44
2023/08/05 07:58:17;;;;;;;9.40;7.78;;;;;;;33.11;43.38;98941.69;5092487;28;20398;-44
2023/08/05 08:00:44;;;;;;;8.38;7.47;;;;;;;32.86;43.00;98935.84;5092180;28;20502;-47
2023/08/05 08:03:09;;;;;;;11.30;7.30;;;;;;;32.94;43.29;98942.25;5091380;28;20032;-43
2023/08/05 08:05:35;;;;;;;9.40;7.10;;;;;;;32.76;43.30;98938.44;5092021;28;20138;-45
2023/08/05 08:08:00;;;;;;;9.65;7.07;;;;;;;32.74;43.51;98930.53;5091597;28;20544;-45
2023/08/05 08:10:26;;;;;;;7.95;7.15;;;;;;;32.79;43.24;98932.19;5091853;28;20111;-44
2023/08/05 08:12:52;;;;;;;7.80;6.90;;;;;;;33.57;41.09;98934.34;5091447;28;20035;-44
2023/08/05 08:15:18;;;;;;;9.10;6.43;;;;;;;34.43;39.06;98930.44;5091630;28;20376;-45
2023/08/05 08:17:43;;;;;;;7.15;6.32;;;;;;;34.16;38.66;98915.25;5091734;28;20035;-46
2023/08/05 08:20:09;;;;;;;7.80;7.00;;;;;;;34.05;38.91;98923.41;5091463;28;20028;-43
2023/08/05 08:22:34;;;;;;;8.88;6.90;;;;;;;34.18;38.83;98907.38;5091505;28;20127;-46
2023/08/05 08:25:00;;;;;;;8.82;6.35;;;;;;;34.02;38.66;98910.34;5091706;28;20031;-43
2023/08/05 08:27:25;;;;;;;8.05;6.35;;;;;;;33.69;39.49;98917.56;5091479;28;20056;-44
2023/08/05 08:29:51;;;;;;;8.32;6.38;;;;;;;33.28;39.63;98925.75;5091620;28;20112;-43
2023/08/05 08:32:16;;;;;;;6.80;6.18;;;;;;;33.87;38.23;98901.16;5091674;28;20476;-44
2023/08/05 08:34:42;;;;;;;8.95;7.10;;;;;;;34.20;37.84;98897.53;5091782;28;20123;-47
2023/08/05 08:37:07;;;;;;;7.60;6.35;;;;;;;34.02;38.61;98891.81;5091518;28;20628;-46
2023/08/05 08:39:33;;;;;;;6.85;6.18;;;;;;;33.76;39.04;98887.28;5091021;28;20028;-44
2023/08/05 08:41:59;;;;;;;6.95;6.25;;;;;;;34.09;38.67;98893.88;5091636;28;20016;-43
2023/08/05 08:44:26;;;;;;;7.90;6.28;;;;;;;33.76;38.34;98881.78;5091207;28;20052;-45
2023/08/05 08:46:52;;;;;;;6.22;5.57;;;;;;;33.92;38.48;98864.94;5091519;28;20035;-43
2023/08/05 08:49:19;;;;;;;7.25;5.45;;;;;;;34.37;37.91;98868.47;5091454;28;20031;-43
2023/08/05 08:51:49;;;;;;;9.75;6.05;;;;;;;34.36;36.82;98863.31;5091431;28;20138;-44
2023/08/05 08:54:16;;;;;;;8.80;5.75;;;;;;;34.10;38.02;98845.78;5090970;28;20027;-47
2023/08/05 08:56:42;;;;;;;6.82;5.28;;;;;;;33.99;37.90;98842.94;5090769;28;20028;-44
2023/08/05 08:59:07;;;;;;;6.88;5.43;;;;;;;34.19;37.17;98850.97;5090558;28;20028;-43
2023/08/05 09:01:38;;;;;;;5.75;5.10;;;;;;;34.05;36.01;98826.81;5090908;28;20395;-43
2023/08/05 09:04:05;;;;;;;6.55;5.88;;;;;;;33.03;38.75;98843.53;5090420;28;20049;-43
2023/08/05 09:06:31;;;;;;;6.37;5.77;;;;;;;33.61;37.79;98819.34;5090755;28;20020;-46
2023/08/05 09:08:56;;;;;;;7.07;5.65;;;;;;;33.56;37.87;98814.19;5091239;28;20026;-46
2023/08/05 09:11:22;;;;;;;7.20;5.80;;;;;;;33.54;38.72;98806.28;5090614;28;20576;-44
2023/08/05 09:13:47;;;;;;;6.55;5.50;;;;;;;33.51;36.18;98818.09;5090598;28;20020;-44
2023/08/05 09:16:13;;;;;;;6.68;5.47;;;;;;;33.75;36.25;98807.69;5090683;28;20024;-43
2023/08/05 09:18:52;;;;;;;6.80;5.50;;;;;;;34.12;35.39;98809.50;5091102;28;20055;-45
2023/08/05 09:21:25;;;;;;;7.63;5.88;;;;;;;33.83;36.53;98806.53;5090789;28;20032;-46
2023/08/05 09:23:53;;;;;;;8.45;5.90;;;;;;;34.37;35.30;98810.50;5090698;28;20028;-46
2023/08/05 09:26:32;;;;;;;7.95;5.95;;;;;;;34.16;35.29;98807.63;5090960;28;20031;-44
2023/08/05 09:28:58;;;;;;;7.07;6.38;;;;;;;34.23;35.46;98802.09;5090715;28;20032;-44
2023/08/05 09:31:24;;;;;;;7.38;6.05;;;;;;;34.42;35.58;98798.28;5090686;28;20444;-44
2023/08/05 09:33:50;;;;;;;7.63;6.20;;;;;;;34.30;34.69;98799.41;5090770;28;20142;-43
2023/08/05 09:36:15;;;;;;;6.57;5.25;;;;;;;33.71;35.70;98799.38;5090630;28;20116;-44
2023/08/05 09:38:47;;;;;;;6.40;5.60;;;;;;;33.63;36.27;98793.00;5090986;28;20157;-45
2023/08/05 09:41:12;;;;;;;6.20;5.47;;;;;;;34.46;35.30;98797.13;5090582;28;20619;-43
2023/08/05 09:43:43;;;;;;;5.72;5.13;;;;;;;34.58;34.89;98779.41;5090247;28;20052;-43
2023/08/05 09:46:12;;;;;;;7.53;5.60;;;;;;;35.11;33.85;98779.97;5089936;28;20020;-42
2023/08/05 09:48:44;;;;;;;6.05;5.20;;;;;;;35.11;33.43;98772.50;5090653;28;20479;-44
2023/08/05 09:51:19;;;;;;;6.18;5.30;;;;;;;34.84;33.63;98769.25;5090744;28;20024;-43
2023/08/05 09:53:51;;;;;;;6.65;5.15;;;;;;;34.70;33.74;98780.28;5090454;28;20241;-43
2023/08/05 09:56:20;;;;;;;5.93;4.80;;;;;;;34.89;32.75;98768.88;5090657;28;20223;-43
2023/08/05 09:58:47;;;;;;;5.68;4.53;;;;;;;34.70;32.84;98760.94;5090221;28;20515;-43
2023/08/05 10:01:13;;;;;;;5.03;4.53;;;;;;;35.33;31.89;98761.50;5090248;28;20020;-45
2023/08/05 10:03:39;;;;;;;5.90;4.70;;;;;;;35.10;31.99;98756.31;5089993;28;20391;-44
2023/08/05 10:06:08;;;;;;;10.23;4.70;;;;;;;35.62;31.39;98765.03;5090030;28;20028;-43
2023/08/05 10:08:39;;;;;;;5.75;4.63;;;;;;;35.40;31.03;98728.31;5090328;28;20020;-44
2023/08/05 10:11:06;;;;;;;5.50;4.45;;;;;;;35.42;31.28;98759.13;5090487;28;20099;-45
2023/08/05 10:13:44;;;;;;;4.40;3.97;;;;;;;35.51;31.58;98728.28;5090242;28;20113;-45
2023/08/05 10:16:11;;;;;;;5.73;3.70;;;;;;;36.01;29.61;98737.34;5091806;28;20043;-45
2023/08/05 10:18:38;;;;;;;6.07;4.00;;;;;;;35.42;30.10;98750.84;5094294;28;20066;-47
2023/08/05 10:21:09;;;;;;;3.70;3.25;;;;;;;34.58;29.60;98715.13;5094833;28;20179;-45
2023/08/05 10:23:37;;;;;;;4.13;3.63;;;;;;;34.58;31.45;98724.19;5094740;28;20020;-44
2023/08/05 10:26:04;;;;;;;5.32;3.60;;;;;;;34.94;31.55;98704.97;5094757;28;20016;-46
2023/08/05 10:28:38;;;;;;;4.28;3.83;;;;;;;35.30;31.32;98696.72;5094702;28;20024;-45
2023/08/05 10:31:22;;;;;;;4.68;3.85;;;;;;;35.28;30.05;98687.22;5094727;28;20129;-45
2023/08/05 10:34:16;;;;;;;4.00;3.60;;;;;;;35.88;29.90;98699.44;5094190;28;20024;-45
2023/08/05 10:36:44;;;;;;;3.85;3.45;;;;;;;35.33;30.29;98706.97;5094152;28;20076;-42
2023/08/05 10:39:40;;;;;;;3.70;3.23;;;;;;;35.51;30.00;98697.88;5094323;28;20050;-44
2023/08/05 10:42:39;;;;;;;4.35;3.40;;;;;;;35.87;29.42;98700.59;5093791;28;20085;-43
2023/08/05 10:45:05;;;;;;;5.03;3.38;;;;;;;35.97;29.43;98686.75;5093729;28;20048;-44
2023/08/05 10:47:32;;;;;;;4.22;3.60;;;;;;;35.59;29.84;98685.63;5094332;28;20174;-44
2023/08/05 10:49:58;;;;;;;6.13;3.40;;;;;;;35.54;30.51;98672.19;5094274;28;20052;-43
2023/08/05 10:52:25;;;;;;;4.40;3.72;;;;;;;36.48;29.24;98678.25;5093855;28;20024;-47
2023/08/05 10:54:51;;;;;;;4.30;3.30;;;;;;;36.10;29.82;98678.81;5093700;28;20019;-43
2023/08/05 10:57:45;;;;;;;5.75;3.42;;;;;;;35.79;29.95;98683.22;5093523;28;20031;-44
2023/08/05 11:00:17;;;;;;;5.35;3.53;;;;;;;36.64;29.06;98663.91;5093233;28;20349;-45
2023/08/05 11:02:43;;;;;;;5.82;3.60;;;;;;;36.71;28.38;98692.41;5093991;28;20316;-44
2023/08/05 11:05:09;;;;;;;4.90;3.55;;;;;;;36.77;27.94;98660.28;5093676;28;20579;-42
2023/08/05 11:07:42;;;;;;;4.03;3.30;;;;;;;36.08;28.54;98680.38;5093476;28;20495;-44
2023/08/05 11:10:08;;;;;;;4.32;3.30;;;;;;;36.32;28.09;98651.03;5093641;28;20558;-44
2023/08/05 11:12:36;;;;;;;4.47;3.20;;;;;;;36.12;28.37;98672.84;5093086;28;20099;-44
2023/08/05 11:15:02;;;;;;;3.70;3.30;;;;;;;36.60;28.31;98641.78;5093554;28;20471;-43
2023/08/05 11:17:28;;;;;;;6.00;3.28;;;;;;;36.55;28.03;98631.13;5093483;28;20103;-44
2023/08/05 11:19:58;;;;;;;5.30;3.30;;;;;;;36.92;27.17;98619.41;5093475;28;20028;-43
2023/08/05 11:22:28;;;;;;;5.22;3.22;;;;;;;37.20;26.73;98619.59;5093217;28;20355;-45
2023/08/05 11:25:04;;;;;;;4.50;3.17;;;;;;;37.03;26.56;98647.03;5093892;28;20043;-43
2023/08/05 11:27:34;;;;;;;3.80;3.05;;;;;;;36.89;26.89;98620.22;5093500;28;20575;-44